createdAt,value
2019-04-19T00:10:35.332Z,39.40
2019-04-19T00:23:54.815Z,39.50
2019-04-19T00:37:16.445Z,39.60
2019-04-19T01:03:45.370Z,39.60
2019-04-19T01:17:04.709Z,39.60
2019-04-19T01:29:57.521Z,39.70
2019-04-19T01:43:20.575Z,39.70
2019-04-19T01:56:10.864Z,39.70
2019-04-19T02:09:24.598Z,39.80
2019-04-19T02:22:42.358Z,39.80
2019-04-19T02:36:31.132Z,39.80
2019-04-19T03:03:07.868Z,39.80
2019-04-19T03:16:26.835Z,39.80
2019-04-19T03:29:38.900Z,39.80
2019-04-19T03:43:10.640Z,39.90
2019-04-19T03:56:36.152Z,39.80
2019-04-19T04:09:47.536Z,39.90
2019-04-19T04:23:09.315Z,39.90
2019-04-19T04:36:40.835Z,40.50
2019-04-19T04:50:09.726Z,40.30
2019-04-19T05:03:24.235Z,40.50
2019-04-19T05:17:18.461Z,40.60
2019-04-19T05:30:00.876Z,40.50
2019-04-19T05:43:52.657Z,40.40
2019-04-19T05:56:50.294Z,40.20
2019-04-19T06:10:10.634Z,38.50
2019-04-19T06:23:49.474Z,37.40
2019-04-19T06:36:59.565Z,36.90
2019-04-19T06:50:21.567Z,36.60
2019-04-19T07:03:40.636Z,36.50
2019-04-19T07:30:41.896Z,36.60
2019-04-19T07:43:55.456Z,36.70
2019-04-19T08:10:18.160Z,36.40
2019-04-19T08:36:14.182Z,37.40
2019-04-19T08:49:24.769Z,37.80
2019-04-19T09:02:49.071Z,38.20
2019-04-19T09:16:16.694Z,38.70
2019-04-19T09:29:45.417Z,38.60
2019-04-19T09:42:58.701Z,38.40
2019-04-19T09:56:29.152Z,39.40
2019-04-19T10:09:38.311Z,40.70
2019-04-19T10:36:02.163Z,40.90
2019-04-19T10:49:16.428Z,39.30
2019-04-19T11:02:17.700Z,38.10
2019-04-19T11:15:24.532Z,37.80
2019-04-19T11:28:31.270Z,37.80
2019-04-19T11:41:54.889Z,37.90
2019-04-19T11:55:18.255Z,38.80
2019-04-19T12:08:42.271Z,39.00
2019-04-19T12:22:03.424Z,38.80
2019-04-19T12:35:27.338Z,38.80
2019-04-19T12:48:49.811Z,38.70
2019-04-19T13:02:11.781Z,38.50
2019-04-19T13:15:34.525Z,38.30
2019-04-19T13:28:57.618Z,38.30
2019-04-19T13:42:21.100Z,38.30
2019-04-19T13:55:43.009Z,38.60
2019-04-19T14:09:06.948Z,39.00
2019-04-19T14:22:29.638Z,39.40
2019-04-19T14:35:52.185Z,39.70
2019-04-19T14:49:14.201Z,38.80
2019-04-19T15:02:36.999Z,38.70
2019-04-19T15:29:02.903Z,38.40
2019-04-19T15:42:08.709Z,38.20
2019-04-19T15:55:15.874Z,38.10
2019-04-19T16:08:23.050Z,37.90
2019-04-19T16:21:39.356Z,37.80
2019-04-19T16:34:38.731Z,37.90
2019-04-19T16:48:01.284Z,37.90
2019-04-19T17:01:25.024Z,37.70
2019-04-19T17:14:47.278Z,37.70
2019-04-19T17:28:10.643Z,37.60
2019-04-19T17:41:32.496Z,37.50
2019-04-19T18:07:58.016Z,37.40
2019-04-19T18:21:05.556Z,37.50
2019-04-19T18:34:13.401Z,37.40
2019-04-19T18:47:19.215Z,37.60
2019-04-19T19:13:32.807Z,37.80
2019-04-19T19:26:49.782Z,38.00
2019-04-19T19:39:52.217Z,38.10
2019-04-19T19:53:14.763Z,38.10
2019-04-19T20:06:03.777Z,38.10
2019-04-19T20:19:24.103Z,38.00
2019-04-19T20:32:49.916Z,38.10
2019-04-19T20:59:10.618Z,38.20
2019-04-19T21:12:23.623Z,38.40
2019-04-19T21:25:32.885Z,38.30
2019-04-19T21:38:31.782Z,38.30
2019-04-19T21:51:39.659Z,38.40
2019-04-19T22:04:49.094Z,38.40
2019-04-19T22:18:10.505Z,38.50
2019-04-19T22:31:34.284Z,38.60
2019-04-19T22:44:55.129Z,38.60
2019-04-19T22:58:24.103Z,38.60
2019-04-19T23:25:15.758Z,38.70
2019-04-19T23:38:25.582Z,38.70
2019-04-19T23:51:31.366Z,38.70
